sensor_id;sensor_type;location;lat;lon;timestamp;temperature;humidity
3053;DHT22;1536;51.098;6.414;2023-01-16T00:00:03;7.60;99.90
3053;DHT22;1536;51.098;6.414;2023-01-16T00:02:30;7.60;99.90
3053;DHT22;1536;51.098;6.414;2023-01-16T00:04:57;7.60;99.90
3053;DHT22;1536;51.098;6.414;2023-01-16T00:07:23;7.60;99.90
3053;DHT22;1536;51.098;6.414;2023-01-16T00:09:50;7.50;99.90
3053;DHT22;1536;51.098;6.414;2023-01-16T00:12:17;7.60;99.90
3053;DHT22;1536;51.098;6.414;2023-01-16T00:14:45;7.60;99.90
3053;DHT22;1536;51.098;6.414;2023-01-16T00:17:11;7.60;99.90
3053;DHT22;1536;51.098;6.414;2023-01-16T00:19:38;7.60;99.90
3053;DHT22;1536;51.098;6.414;2023-01-16T00:22:05;7.60;99.90
3053;DHT22;1536;51.098;6.414;2023-01-16T00:24:32;7.70;99.90
3053;DHT22;1536;51.098;6.414;2023-01-16T00:26:58;7.60;99.90
3053;DHT22;1536;51.098;6.414;2023-01-16T00:29:25;7.60;99.90
3053;DHT22;1536;51.098;6.414;2023-01-16T00:31:53;7.60;99.90
3053;DHT22;1536;51.098;6.414;2023-01-16T00:34:20;7.60;99.90
3053;DHT22;1536;51.098;6.414;2023-01-16T00:36:46;7.60;99.90
3053;DHT22;1536;51.098;6.414;2023-01-16T00:39:13;7.60;99.90
3053;DHT22;1536;51.098;6.414;2023-01-16T00:41:40;7.70;99.90
3053;DHT22;1536;51.098;6.414;2023-01-16T00:44:07;7.70;99.90
3053;DHT22;1536;51.098;6.414;2023-01-16T00:46:33;7.60;99.90
3053;DHT22;1536;51.098;6.414;2023-01-16T00:49:01;7.70;99.90
3053;DHT22;1536;51.098;6.414;2023-01-16T00:51:28;7.70;99.90
3053;DHT22;1536;51.098;6.414;2023-01-16T00:53:55;7.60;99.90
3053;DHT22;1536;51.098;6.414;2023-01-16T00:56:21;7.60;99.90
3053;DHT22;1536;51.098;6.414;2023-01-16T00:58:48;7.60;99.90
3053;DHT22;1536;51.098;6.414;2023-01-16T01:01:15;7.70;99.90
3053;DHT22;1536;51.098;6.414;2023-01-16T01:03:41;7.60;99.90
3053;DHT22;1536;51.098;6.414;2023-01-16T01:06:10;7.60;99.90
3053;DHT22;1536;51.098;6.414;2023-01-16T01:08:37;7.60;99.90
3053;DHT22;1536;51.098;6.414;2023-01-16T01:11:08;7.60;99.90
3053;DHT22;1536;51.098;6.414;2023-01-16T01:13:35;7.60;99.90
3053;DHT22;1536;51.098;6.414;2023-01-16T01:16:02;7.70;99.90
3053;DHT22;1536;51.098;6.414;2023-01-16T01:18:29;7.70;99.90
3053;DHT22;1536;51.098;6.414;2023-01-16T01:20:56;7.70;99.90
3053;DHT22;1536;51.098;6.414;2023-01-16T01:23:24;7.70;99.90
3053;DHT22;1536;51.098;6.414;2023-01-16T01:25:51;7.70;99.90
3053;DHT22;1536;51.098;6.414;2023-01-16T01:28:18;7.80;99.90
3053;DHT22;1536;51.098;6.414;2023-01-16T01:30:45;7.80;99.90
3053;DHT22;1536;51.098;6.414;2023-01-16T01:33:12;7.80;99.90
3053;DHT22;1536;51.098;6.414;2023-01-16T01:35:45;7.90;99.90
3053;DHT22;1536;51.098;6.414;2023-01-16T01:38:11;7.90;99.90
3053;DHT22;1536;51.098;6.414;2023-01-16T01:40:39;7.90;99.90
3053;DHT22;1536;51.098;6.414;2023-01-16T01:43:11;7.90;99.90
3053;DHT22;1536;51.098;6.414;2023-01-16T01:45:39;7.90;99.90
3053;DHT22;1536;51.098;6.414;2023-01-16T01:48:18;7.90;99.90
3053;DHT22;1536;51.098;6.414;2023-01-16T01:50:49;8.00;99.90
3053;DHT22;1536;51.098;6.414;2023-01-16T01:53:21;8.00;99.90
3053;DHT22;1536;51.098;6.414;2023-01-16T01:55:53;8.00;99.90
3053;DHT22;1536;51.098;6.414;2023-01-16T01:58:23;8.00;99.90
3053;DHT22;1536;51.098;6.414;2023-01-16T02:00:53;8.00;99.90
3053;DHT22;1536;51.098;6.414;2023-01-16T02:03:23;8.10;99.90
3053;DHT22;1536;51.098;6.414;2023-01-16T02:05:53;8.10;99.90
3053;DHT22;1536;51.098;6.414;2023-01-16T02:08:26;8.10;99.90
3053;DHT22;1536;51.098;6.414;2023-01-16T02:10:59;8.10;99.90
3053;DHT22;1536;51.098;6.414;2023-01-16T02:13:27;8.10;99.90
3053;DHT22;1536;51.098;6.414;2023-01-16T02:15:55;8.00;99.90
3053;DHT22;1536;51.098;6.414;2023-01-16T02:18:39;8.00;99.90
3053;DHT22;1536;51.098;6.414;2023-01-16T02:21:40;8.00;99.90
3053;DHT22;1536;51.098;6.414;2023-01-16T02:24:35;7.90;99.90
3053;DHT22;1536;51.098;6.414;2023-01-16T02:33:04;7.70;99.90
3053;DHT22;1536;51.098;6.414;2023-01-16T02:35:53;7.70;99.90
3053;DHT22;1536;51.098;6.414;2023-01-16T02:38:28;7.70;99.90
3053;DHT22;1536;51.098;6.414;2023-01-16T02:41:04;7.60;99.90
3053;DHT22;1536;51.098;6.414;2023-01-16T02:43:38;7.60;99.90
3053;DHT22;1536;51.098;6.414;2023-01-16T02:46:15;7.60;99.90
3053;DHT22;1536;51.098;6.414;2023-01-16T02:48:49;7.60;99.90
3053;DHT22;1536;51.098;6.414;2023-01-16T02:51:23;7.60;99.90
3053;DHT22;1536;51.098;6.414;2023-01-16T02:53:59;7.60;99.90
3053;DHT22;1536;51.098;6.414;2023-01-16T02:56:30;7.60;99.90
3053;DHT22;1536;51.098;6.414;2023-01-16T02:58:58;7.60;99.90
3053;DHT22;1536;51.098;6.414;2023-01-16T03:01:25;7.60;99.90
3053;DHT22;1536;51.098;6.414;2023-01-16T03:04:04;7.60;99.90
3053;DHT22;1536;51.098;6.414;2023-01-16T03:06:40;7.60;99.90
3053;DHT22;1536;51.098;6.414;2023-01-16T03:09:19;7.60;99.90
3053;DHT22;1536;51.098;6.414;2023-01-16T03:11:57;7.60;99.90
3053;DHT22;1536;51.098;6.414;2023-01-16T03:14:33;7.60;99.90
3053;DHT22;1536;51.098;6.414;2023-01-16T03:17:09;7.60;99.90
3053;DHT22;1536;51.098;6.414;2023-01-16T03:19:45;7.70;99.90
3053;DHT22;1536;51.098;6.414;2023-01-16T03:22:17;7.60;99.90
3053;DHT22;1536;51.098;6.414;2023-01-16T03:25:02;7.60;99.90
3053;DHT22;1536;51.098;6.414;2023-01-16T03:27:42;7.70;99.90
3053;DHT22;1536;51.098;6.414;2023-01-16T03:30:17;7.70;99.90
3053;DHT22;1536;51.098;6.414;2023-01-16T03:32:50;7.70;99.90
3053;DHT22;1536;51.098;6.414;2023-01-16T03:35:33;7.70;99.90
3053;DHT22;1536;51.098;6.414;2023-01-16T03:38:03;7.60;99.90
3053;DHT22;1536;51.098;6.414;2023-01-16T03:40:34;7.60;99.90
3053;DHT22;1536;51.098;6.414;2023-01-16T03:43:05;7.60;99.90
3053;DHT22;1536;51.098;6.414;2023-01-16T03:45:38;7.60;99.90
3053;DHT22;1536;51.098;6.414;2023-01-16T03:48:10;7.60;99.90
3053;DHT22;1536;51.098;6.414;2023-01-16T03:50:41;7.60;99.90
3053;DHT22;1536;51.098;6.414;2023-01-16T03:53:11;7.60;99.90
3053;DHT22;1536;51.098;6.414;2023-01-16T03:55:42;7.60;99.90
3053;DHT22;1536;51.098;6.414;2023-01-16T03:58:14;7.50;99.90
3053;DHT22;1536;51.098;6.414;2023-01-16T04:00:50;7.50;99.90
3053;DHT22;1536;51.098;6.414;2023-01-16T04:03:24;7.50;99.90
3053;DHT22;1536;51.098;6.414;2023-01-16T04:05:58;7.50;99.90
3053;DHT22;1536;51.098;6.414;2023-01-16T04:08:28;7.50;99.90
3053;DHT22;1536;51.098;6.414;2023-01-16T04:10:58;7.50;99.90
3053;DHT22;1536;51.098;6.414;2023-01-16T04:13:27;7.50;99.90
3053;DHT22;1536;51.098;6.414;2023-01-16T04:15:56;7.50;99.90
3053;DHT22;1536;51.098;6.414;2023-01-16T04:18:34;7.50;99.90
3053;DHT22;1536;51.098;6.414;2023-01-16T04:21:06;7.50;99.90
3053;DHT22;1536;51.098;6.414;2023-01-16T04:23:33;7.50;99.90
3053;DHT22;1536;51.098;6.414;2023-01-16T04:26:00;7.50;99.90
3053;DHT22;1536;51.098;6.414;2023-01-16T04:28:26;7.50;99.90
3053;DHT22;1536;51.098;6.414;2023-01-16T04:30:53;7.50;99.90
3053;DHT22;1536;51.098;6.414;2023-01-16T04:33:20;7.60;99.90
3053;DHT22;1536;51.098;6.414;2023-01-16T04:35:53;7.60;99.90
3053;DHT22;1536;51.098;6.414;2023-01-16T04:38:21;7.60;99.90
3053;DHT22;1536;51.098;6.414;2023-01-16T04:40:48;7.60;99.90
3053;DHT22;1536;51.098;6.414;2023-01-16T04:43:14;7.60;99.90
3053;DHT22;1536;51.098;6.414;2023-01-16T04:45:41;7.60;99.90
3053;DHT22;1536;51.098;6.414;2023-01-16T04:48:08;7.60;99.90
3053;DHT22;1536;51.098;6.414;2023-01-16T04:50:34;7.60;99.90
3053;DHT22;1536;51.098;6.414;2023-01-16T04:53:01;7.60;99.90
3053;DHT22;1536;51.098;6.414;2023-01-16T04:55:30;7.70;99.90
3053;DHT22;1536;51.098;6.414;2023-01-16T04:57:56;7.70;99.90
3053;DHT22;1536;51.098;6.414;2023-01-16T05:00:23;7.70;99.90
3053;DHT22;1536;51.098;6.414;2023-01-16T05:02:52;7.70;99.90
3053;DHT22;1536;51.098;6.414;2023-01-16T05:05:19;7.70;99.90
3053;DHT22;1536;51.098;6.414;2023-01-16T05:07:45;7.80;99.90
3053;DHT22;1536;51.098;6.414;2023-01-16T05:10:33;7.80;99.90
3053;DHT22;1536;51.098;6.414;2023-01-16T05:13:00;7.80;99.90
3053;DHT22;1536;51.098;6.414;2023-01-16T05:15:27;7.80;99.90
3053;DHT22;1536;51.098;6.414;2023-01-16T05:17:54;7.80;99.90
3053;DHT22;1536;51.098;6.414;2023-01-16T05:20:21;7.80;99.90
3053;DHT22;1536;51.098;6.414;2023-01-16T05:22:48;7.90;99.90
3053;DHT22;1536;51.098;6.414;2023-01-16T05:25:15;7.90;99.90
3053;DHT22;1536;51.098;6.414;2023-01-16T05:27:43;7.90;99.90
3053;DHT22;1536;51.098;6.414;2023-01-16T05:30:11;7.90;99.90
3053;DHT22;1536;51.098;6.414;2023-01-16T05:32:37;7.90;99.90
3053;DHT22;1536;51.098;6.414;2023-01-16T05:35:19;8.00;99.90
3053;DHT22;1536;51.098;6.414;2023-01-16T05:37:46;8.00;99.90
3053;DHT22;1536;51.098;6.414;2023-01-16T05:40:13;8.00;99.90
3053;DHT22;1536;51.098;6.414;2023-01-16T05:42:43;8.00;99.90
3053;DHT22;1536;51.098;6.414;2023-01-16T05:45:10;8.10;99.90
3053;DHT22;1536;51.098;6.414;2023-01-16T05:47:37;8.10;99.90
3053;DHT22;1536;51.098;6.414;2023-01-16T05:50:05;8.10;99.90
3053;DHT22;1536;51.098;6.414;2023-01-16T05:52:32;8.10;99.90
3053;DHT22;1536;51.098;6.414;2023-01-16T05:54:59;8.10;99.90
3053;DHT22;1536;51.098;6.414;2023-01-16T05:57:25;8.10;99.90
3053;DHT22;1536;51.098;6.414;2023-01-16T05:59:53;8.10;99.90
3053;DHT22;1536;51.098;6.414;2023-01-16T06:02:21;8.10;99.90
3053;DHT22;1536;51.098;6.414;2023-01-16T06:04:51;8.10;99.90
3053;DHT22;1536;51.098;6.414;2023-01-16T06:07:18;8.10;99.90
3053;DHT22;1536;51.098;6.414;2023-01-16T06:09:45;8.20;99.90
3053;DHT22;1536;51.098;6.414;2023-01-16T06:12:14;8.20;99.90
3053;DHT22;1536;51.098;6.414;2023-01-16T06:14:41;8.10;99.90
3053;DHT22;1536;51.098;6.414;2023-01-16T06:17:10;8.10;99.90
3053;DHT22;1536;51.098;6.414;2023-01-16T06:19:36;8.20;99.90
3053;DHT22;1536;51.098;6.414;2023-01-16T06:22:03;8.20;99.90
3053;DHT22;1536;51.098;6.414;2023-01-16T06:24:30;8.30;99.90
3053;DHT22;1536;51.098;6.414;2023-01-16T06:26:56;8.30;99.90
3053;DHT22;1536;51.098;6.414;2023-01-16T06:29:23;8.30;99.90
3053;DHT22;1536;51.098;6.414;2023-01-16T06:31:50;8.30;99.90
3053;DHT22;1536;51.098;6.414;2023-01-16T06:34:24;8.30;99.90
3053;DHT22;1536;51.098;6.414;2023-01-16T06:36:51;8.30;99.90
3053;DHT22;1536;51.098;6.414;2023-01-16T06:39:18;8.20;99.90
3053;DHT22;1536;51.098;6.414;2023-01-16T06:41:44;8.20;99.90
3053;DHT22;1536;51.098;6.414;2023-01-16T06:44:11;8.30;99.90
3053;DHT22;1536;51.098;6.414;2023-01-16T06:46:38;8.30;99.90
3053;DHT22;1536;51.098;6.414;2023-01-16T06:49:05;8.30;99.90
3053;DHT22;1536;51.098;6.414;2023-01-16T06:51:33;8.30;99.90
3053;DHT22;1536;51.098;6.414;2023-01-16T06:54:00;8.30;99.90
3053;DHT22;1536;51.098;6.414;2023-01-16T06:56:28;8.40;99.90
3053;DHT22;1536;51.098;6.414;2023-01-16T06:58:55;8.30;99.90
3053;DHT22;1536;51.098;6.414;2023-01-16T07:01:21;8.30;99.90
3053;DHT22;1536;51.098;6.414;2023-01-16T07:03:48;8.30;99.90
3053;DHT22;1536;51.098;6.414;2023-01-16T07:06:15;8.30;99.90
3053;DHT22;1536;51.098;6.414;2023-01-16T07:08:43;8.30;99.90
3053;DHT22;1536;51.098;6.414;2023-01-16T07:11:10;8.30;99.90
3053;DHT22;1536;51.098;6.414;2023-01-16T07:13:36;8.30;99.90
3053;DHT22;1536;51.098;6.414;2023-01-16T07:16:03;8.30;99.90
3053;DHT22;1536;51.098;6.414;2023-01-16T07:18:47;8.30;99.90
3053;DHT22;1536;51.098;6.414;2023-01-16T07:21:32;8.40;99.90
3053;DHT22;1536;51.098;6.414;2023-01-16T07:24:21;8.30;99.90
3053;DHT22;1536;51.098;6.414;2023-01-16T07:26:51;8.30;99.90
3053;DHT22;1536;51.098;6.414;2023-01-16T07:29:19;8.30;99.90
3053;DHT22;1536;51.098;6.414;2023-01-16T07:31:46;8.40;99.90
3053;DHT22;1536;51.098;6.414;2023-01-16T07:34:13;8.30;99.90
3053;DHT22;1536;51.098;6.414;2023-01-16T07:36:40;8.40;99.90
3053;DHT22;1536;51.098;6.414;2023-01-16T07:39:06;8.30;99.90
3053;DHT22;1536;51.098;6.414;2023-01-16T07:41:34;8.40;99.90
3053;DHT22;1536;51.098;6.414;2023-01-16T07:44:01;8.40;99.90
3053;DHT22;1536;51.098;6.414;2023-01-16T07:46:28;8.40;99.90
3053;DHT22;1536;51.098;6.414;2023-01-16T07:48:54;8.40;99.90
3053;DHT22;1536;51.098;6.414;2023-01-16T07:51:22;8.30;99.90
3053;DHT22;1536;51.098;6.414;2023-01-16T07:53:48;8.30;99.90
3053;DHT22;1536;51.098;6.414;2023-01-16T07:56:15;8.30;99.90
3053;DHT22;1536;51.098;6.414;2023-01-16T07:58:44;8.30;99.90
3053;DHT22;1536;51.098;6.414;2023-01-16T08:01:11;8.30;99.90
3053;DHT22;1536;51.098;6.414;2023-01-16T08:03:38;8.30;99.90
3053;DHT22;1536;51.098;6.414;2023-01-16T08:06:05;8.30;99.90
3053;DHT22;1536;51.098;6.414;2023-01-16T08:08:32;8.30;99.90
3053;DHT22;1536;51.098;6.414;2023-01-16T08:11:00;8.20;99.90
3053;DHT22;1536;51.098;6.414;2023-01-16T08:13:50;8.20;99.90
3053;DHT22;1536;51.098;6.414;2023-01-16T08:16:17;8.20;99.90
3053;DHT22;1536;51.098;6.414;2023-01-16T08:18:44;8.20;99.90
3053;DHT22;1536;51.098;6.414;2023-01-16T08:21:14;8.20;99.90
3053;DHT22;1536;51.098;6.414;2023-01-16T08:23:41;8.20;99.90
3053;DHT22;1536;51.098;6.414;2023-01-16T08:26:08;8.10;99.90
3053;DHT22;1536;51.098;6.414;2023-01-16T08:28:35;8.10;99.90
3053;DHT22;1536;51.098;6.414;2023-01-16T08:31:07;8.00;99.90
3053;DHT22;1536;51.098;6.414;2023-01-16T08:33:37;8.00;99.90
3053;DHT22;1536;51.098;6.414;2023-01-16T08:36:05;8.00;99.90
3053;DHT22;1536;51.098;6.414;2023-01-16T08:38:32;8.10;99.90
3053;DHT22;1536;51.098;6.414;2023-01-16T08:40:59;8.10;99.90
3053;DHT22;1536;51.098;6.414;2023-01-16T08:43:26;8.00;99.90
3053;DHT22;1536;51.098;6.414;2023-01-16T08:46:17;8.00;99.90
3053;DHT22;1536;51.098;6.414;2023-01-16T08:49:03;7.90;99.90
3053;DHT22;1536;51.098;6.414;2023-01-16T08:51:50;7.90;99.90
3053;DHT22;1536;51.098;6.414;2023-01-16T08:54:16;7.90;99.90
3053;DHT22;1536;51.098;6.414;2023-01-16T08:56:43;7.80;99.90
3053;DHT22;1536;51.098;6.414;2023-01-16T08:59:10;7.80;99.90
3053;DHT22;1536;51.098;6.414;2023-01-16T09:01:38;7.80;99.90
3053;DHT22;1536;51.098;6.414;2023-01-16T09:04:05;7.90;99.90
3053;DHT22;1536;51.098;6.414;2023-01-16T09:06:34;7.80;99.90
3053;DHT22;1536;51.098;6.414;2023-01-16T09:09:01;7.80;99.90
3053;DHT22;1536;51.098;6.414;2023-01-16T09:11:28;7.90;99.90
3053;DHT22;1536;51.098;6.414;2023-01-16T09:14:12;7.90;99.90
3053;DHT22;1536;51.098;6.414;2023-01-16T09:16:40;7.90;99.90
3053;DHT22;1536;51.098;6.414;2023-01-16T09:19:07;7.90;99.90
3053;DHT22;1536;51.098;6.414;2023-01-16T09:21:34;7.90;99.90
3053;DHT22;1536;51.098;6.414;2023-01-16T09:24:01;7.90;99.90
3053;DHT22;1536;51.098;6.414;2023-01-16T09:26:28;7.90;99.90
3053;DHT22;1536;51.098;6.414;2023-01-16T09:28:56;7.90;99.90
3053;DHT22;1536;51.098;6.414;2023-01-16T09:31:22;8.00;99.90
3053;DHT22;1536;51.098;6.414;2023-01-16T09:33:50;7.90;99.90
3053;DHT22;1536;51.098;6.414;2023-01-16T09:36:20;7.90;99.90
3053;DHT22;1536;51.098;6.414;2023-01-16T09:38:47;7.80;99.90
3053;DHT22;1536;51.098;6.414;2023-01-16T09:41:16;7.80;99.90
3053;DHT22;1536;51.098;6.414;2023-01-16T09:44:06;7.70;99.90
3053;DHT22;1536;51.098;6.414;2023-01-16T09:46:36;7.80;99.90
3053;DHT22;1536;51.098;6.414;2023-01-16T09:49:12;7.70;99.90
3053;DHT22;1536;51.098;6.414;2023-01-16T09:51:44;7.70;99.90
3053;DHT22;1536;51.098;6.414;2023-01-16T09:54:37;7.70;99.90
3053;DHT22;1536;51.098;6.414;2023-01-16T09:57:26;7.70;99.90
3053;DHT22;1536;51.098;6.414;2023-01-16T10:00:13;7.60;99.90
3053;DHT22;1536;51.098;6.414;2023-01-16T10:02:41;7.60;99.90
3053;DHT22;1536;51.098;6.414;2023-01-16T10:05:10;7.60;99.90
3053;DHT22;1536;51.098;6.414;2023-01-16T10:07:51;7.60;99.90
3053;DHT22;1536;51.098;6.414;2023-01-16T10:10:42;7.60;99.90
3053;DHT22;1536;51.098;6.414;2023-01-16T10:13:25;7.70;99.90
3053;DHT22;1536;51.098;6.414;2023-01-16T10:15:58;7.70;99.90
3053;DHT22;1536;51.098;6.414;2023-01-16T10:18:34;7.70;99.90
3053;DHT22;1536;51.098;6.414;2023-01-16T10:21:22;7.70;99.90
3053;DHT22;1536;51.098;6.414;2023-01-16T10:23:53;7.70;99.90
3053;DHT22;1536;51.098;6.414;2023-01-16T10:26:28;7.80;99.90
3053;DHT22;1536;51.098;6.414;2023-01-16T10:28:59;7.80;99.90
3053;DHT22;1536;51.098;6.414;2023-01-16T10:31:30;7.90;99.90
3053;DHT22;1536;51.098;6.414;2023-01-16T10:34:00;7.90;99.90
3053;DHT22;1536;51.098;6.414;2023-01-16T10:36:34;7.90;99.90
3053;DHT22;1536;51.098;6.414;2023-01-16T10:39:02;7.90;99.90
3053;DHT22;1536;51.098;6.414;2023-01-16T10:41:31;8.00;99.90
3053;DHT22;1536;51.098;6.414;2023-01-16T10:44:27;8.00;99.90
3053;DHT22;1536;51.098;6.414;2023-01-16T10:47:15;8.00;99.90
3053;DHT22;1536;51.098;6.414;2023-01-16T10:50:03;8.10;99.90
3053;DHT22;1536;51.098;6.414;2023-01-16T10:52:32;8.00;99.90
3053;DHT22;1536;51.098;6.414;2023-01-16T10:54:59;7.90;99.90
3053;DHT22;1536;51.098;6.414;2023-01-16T10:57:26;8.00;99.90
3053;DHT22;1536;51.098;6.414;2023-01-16T10:59:56;8.00;99.90
3053;DHT22;1536;51.098;6.414;2023-01-16T11:02:30;8.00;99.90
3053;DHT22;1536;51.098;6.414;2023-01-16T11:05:01;8.10;99.90
3053;DHT22;1536;51.098;6.414;2023-01-16T11:07:48;8.10;99.90
3053;DHT22;1536;51.098;6.414;2023-01-16T11:10:19;8.10;99.90
3053;DHT22;1536;51.098;6.414;2023-01-16T11:12:46;8.20;99.90
3053;DHT22;1536;51.098;6.414;2023-01-16T11:15:31;8.30;99.90
3053;DHT22;1536;51.098;6.414;2023-01-16T11:18:19;8.30;99.90
3053;DHT22;1536;51.098;6.414;2023-01-16T11:21:00;8.30;99.90
3053;DHT22;1536;51.098;6.414;2023-01-16T11:23:37;8.40;99.90
3053;DHT22;1536;51.098;6.414;2023-01-16T11:26:04;8.40;99.90
3053;DHT22;1536;51.098;6.414;2023-01-16T11:28:32;8.40;99.90
3053;DHT22;1536;51.098;6.414;2023-01-16T11:31:02;8.50;99.90
3053;DHT22;1536;51.098;6.414;2023-01-16T11:33:34;8.50;99.90
3053;DHT22;1536;51.098;6.414;2023-01-16T11:36:03;8.40;99.90
3053;DHT22;1536;51.098;6.414;2023-01-16T11:38:35;8.40;99.90
3053;DHT22;1536;51.098;6.414;2023-01-16T11:41:04;8.50;99.90
3053;DHT22;1536;51.098;6.414;2023-01-16T11:43:34;8.50;99.90
3053;DHT22;1536;51.098;6.414;2023-01-16T11:46:34;8.50;99.90
3053;DHT22;1536;51.098;6.414;2023-01-16T11:49:05;8.50;99.90
3053;DHT22;1536;51.098;6.414;2023-01-16T11:51:40;8.60;99.90
3053;DHT22;1536;51.098;6.414;2023-01-16T11:54:13;8.70;99.90
3053;DHT22;1536;51.098;6.414;2023-01-16T11:56:56;8.70;99.90
3053;DHT22;1536;51.098;6.414;2023-01-16T11:59:38;8.70;99.90
3053;DHT22;1536;51.098;6.414;2023-01-16T12:02:20;8.70;99.90
3053;DHT22;1536;51.098;6.414;2023-01-16T12:05:07;8.70;99.90
3053;DHT22;1536;51.098;6.414;2023-01-16T12:08:04;8.70;99.90
3053;DHT22;1536;51.098;6.414;2023-01-16T12:10:42;8.70;99.90
3053;DHT22;1536;51.098;6.414;2023-01-16T12:13:12;8.70;99.90
3053;DHT22;1536;51.098;6.414;2023-01-16T12:16:07;8.60;99.90
3053;DHT22;1536;51.098;6.414;2023-01-16T12:18:47;8.60;99.90
3053;DHT22;1536;51.098;6.414;2023-01-16T12:21:29;8.60;99.90
3053;DHT22;1536;51.098;6.414;2023-01-16T12:27:07;8.60;99.90
3053;DHT22;1536;51.098;6.414;2023-01-16T12:29:45;8.70;99.90
3053;DHT22;1536;51.098;6.414;2023-01-16T12:35:16;8.70;99.90
3053;DHT22;1536;51.098;6.414;2023-01-16T12:37:55;8.70;99.90
3053;DHT22;1536;51.098;6.414;2023-01-16T12:40:37;8.70;99.90
3053;DHT22;1536;51.098;6.414;2023-01-16T12:43:21;8.70;99.90
3053;DHT22;1536;51.098;6.414;2023-01-16T12:45:50;8.70;99.90
3053;DHT22;1536;51.098;6.414;2023-01-16T12:48:38;8.70;99.90
3053;DHT22;1536;51.098;6.414;2023-01-16T12:51:33;8.70;99.90
3053;DHT22;1536;51.098;6.414;2023-01-16T12:54:24;8.70;99.90
3053;DHT22;1536;51.098;6.414;2023-01-16T12:57:11;8.70;99.90
3053;DHT22;1536;51.098;6.414;2023-01-16T12:59:44;8.70;99.90
3053;DHT22;1536;51.098;6.414;2023-01-16T13:02:19;8.70;99.90
3053;DHT22;1536;51.098;6.414;2023-01-16T13:04:51;8.60;99.90
3053;DHT22;1536;51.098;6.414;2023-01-16T13:07:21;8.60;99.90
3053;DHT22;1536;51.098;6.414;2023-01-16T13:09:52;8.60;99.90
3053;DHT22;1536;51.098;6.414;2023-01-16T13:12:41;8.60;99.90
3053;DHT22;1536;51.098;6.414;2023-01-16T13:15:32;8.60;99.90
3053;DHT22;1536;51.098;6.414;2023-01-16T13:18:04;8.60;99.90
3053;DHT22;1536;51.098;6.414;2023-01-16T13:20:34;8.60;99.90
3053;DHT22;1536;51.098;6.414;2023-01-16T13:23:06;8.50;99.90
3053;DHT22;1536;51.098;6.414;2023-01-16T13:25:38;8.50;99.90
3053;DHT22;1536;51.098;6.414;2023-01-16T13:28:17;8.50;99.90
3053;DHT22;1536;51.098;6.414;2023-01-16T13:30:45;8.50;99.90
3053;DHT22;1536;51.098;6.414;2023-01-16T13:33:16;8.40;99.90
3053;DHT22;1536;51.098;6.414;2023-01-16T13:35:47;8.40;99.90
3053;DHT22;1536;51.098;6.414;2023-01-16T13:38:32;8.50;99.90
3053;DHT22;1536;51.098;6.414;2023-01-16T13:41:13;8.40;99.90
3053;DHT22;1536;51.098;6.414;2023-01-16T13:43:43;8.40;99.90
3053;DHT22;1536;51.098;6.414;2023-01-16T13:46:30;8.30;99.90
3053;DHT22;1536;51.098;6.414;2023-01-16T13:49:01;8.20;99.90
3053;DHT22;1536;51.098;6.414;2023-01-16T13:51:28;8.20;99.90
3053;DHT22;1536;51.098;6.414;2023-01-16T13:53:57;8.20;99.90
3053;DHT22;1536;51.098;6.414;2023-01-16T13:56:26;8.10;99.90
3053;DHT22;1536;51.098;6.414;2023-01-16T13:58:56;8.10;99.90
3053;DHT22;1536;51.098;6.414;2023-01-16T14:01:51;8.10;99.90
3053;DHT22;1536;51.098;6.414;2023-01-16T14:04:31;8.00;99.90
3053;DHT22;1536;51.098;6.414;2023-01-16T14:06:59;8.00;99.90
3053;DHT22;1536;51.098;6.414;2023-01-16T14:10:07;8.00;99.90
3053;DHT22;1536;51.098;6.414;2023-01-16T14:12:35;7.90;99.90
3053;DHT22;1536;51.098;6.414;2023-01-16T14:15:14;8.00;99.90
3053;DHT22;1536;51.098;6.414;2023-01-16T14:18:19;7.90;99.90
3053;DHT22;1536;51.098;6.414;2023-01-16T14:20:51;7.90;99.90
3053;DHT22;1536;51.098;6.414;2023-01-16T14:23:23;7.90;99.90
3053;DHT22;1536;51.098;6.414;2023-01-16T14:26:12;7.80;99.90
3053;DHT22;1536;51.098;6.414;2023-01-16T14:28:46;7.80;99.90
3053;DHT22;1536;51.098;6.414;2023-01-16T14:31:23;7.80;99.90
3053;DHT22;1536;51.098;6.414;2023-01-16T14:33:55;7.80;99.90
3053;DHT22;1536;51.098;6.414;2023-01-16T14:36:24;7.70;99.90
3053;DHT22;1536;51.098;6.414;2023-01-16T14:38:53;7.70;99.90
3053;DHT22;1536;51.098;6.414;2023-01-16T14:41:31;7.60;99.90
3053;DHT22;1536;51.098;6.414;2023-01-16T14:44:17;7.60;99.90
3053;DHT22;1536;51.098;6.414;2023-01-16T14:47:09;7.60;99.90
3053;DHT22;1536;51.098;6.414;2023-01-16T14:50:05;7.50;99.90
3053;DHT22;1536;51.098;6.414;2023-01-16T14:53:04;7.50;99.90
3053;DHT22;1536;51.098;6.414;2023-01-16T14:55:58;7.50;99.90
3053;DHT22;1536;51.098;6.414;2023-01-16T14:58:33;7.50;99.90
3053;DHT22;1536;51.098;6.414;2023-01-16T15:01:02;7.50;99.90
3053;DHT22;1536;51.098;6.414;2023-01-16T15:04:00;7.50;99.90
3053;DHT22;1536;51.098;6.414;2023-01-16T15:06:33;7.50;99.90
3053;DHT22;1536;51.098;6.414;2023-01-16T15:09:01;7.60;99.90
3053;DHT22;1536;51.098;6.414;2023-01-16T15:11:30;7.60;99.90
3053;DHT22;1536;51.098;6.414;2023-01-16T15:14:11;7.60;99.90
3053;DHT22;1536;51.098;6.414;2023-01-16T15:17:02;7.60;99.90
3053;DHT22;1536;51.098;6.414;2023-01-16T15:19:56;7.60;99.90
3053;DHT22;1536;51.098;6.414;2023-01-16T15:22:43;7.60;99.90
3053;DHT22;1536;51.098;6.414;2023-01-16T15:25:21;7.60;99.90
3053;DHT22;1536;51.098;6.414;2023-01-16T15:27:55;7.60;99.90
3053;DHT22;1536;51.098;6.414;2023-01-16T15:30:25;7.60;99.90
3053;DHT22;1536;51.098;6.414;2023-01-16T15:32:53;7.60;99.90
3053;DHT22;1536;51.098;6.414;2023-01-16T15:35:22;7.60;99.90
3053;DHT22;1536;51.098;6.414;2023-01-16T15:37:52;7.60;99.90
3053;DHT22;1536;51.098;6.414;2023-01-16T15:40:23;7.70;99.90
3053;DHT22;1536;51.098;6.414;2023-01-16T15:42:50;7.70;99.90
3053;DHT22;1536;51.098;6.414;2023-01-16T15:45:35;7.70;99.90
3053;DHT22;1536;51.098;6.414;2023-01-16T15:48:32;7.70;99.90
3053;DHT22;1536;51.098;6.414;2023-01-16T15:51:07;7.70;99.90
3053;DHT22;1536;51.098;6.414;2023-01-16T15:53:38;7.80;99.90
3053;DHT22;1536;51.098;6.414;2023-01-16T15:56:09;7.80;99.90
3053;DHT22;1536;51.098;6.414;2023-01-16T15:58:42;7.80;99.90
3053;DHT22;1536;51.098;6.414;2023-01-16T16:01:13;7.80;99.90
3053;DHT22;1536;51.098;6.414;2023-01-16T16:03:42;7.80;99.90
3053;DHT22;1536;51.098;6.414;2023-01-16T16:06:11;7.80;99.90
3053;DHT22;1536;51.098;6.414;2023-01-16T16:08:43;7.80;99.90
3053;DHT22;1536;51.098;6.414;2023-01-16T16:11:16;7.80;99.90
3053;DHT22;1536;51.098;6.414;2023-01-16T16:14:02;7.80;99.90
3053;DHT22;1536;51.098;6.414;2023-01-16T16:16:59;7.80;99.90
3053;DHT22;1536;51.098;6.414;2023-01-16T16:19:44;7.70;99.90
3053;DHT22;1536;51.098;6.414;2023-01-16T16:22:11;7.70;99.90
3053;DHT22;1536;51.098;6.414;2023-01-16T16:25:06;7.70;99.90
3053;DHT22;1536;51.098;6.414;2023-01-16T16:27:33;7.70;99.90
3053;DHT22;1536;51.098;6.414;2023-01-16T16:30:02;7.80;99.90
3053;DHT22;1536;51.098;6.414;2023-01-16T16:32:30;7.80;99.90
3053;DHT22;1536;51.098;6.414;2023-01-16T16:34:57;7.80;99.90
3053;DHT22;1536;51.098;6.414;2023-01-16T16:37:24;7.80;99.90
3053;DHT22;1536;51.098;6.414;2023-01-16T16:39:57;7.70;99.90
3053;DHT22;1536;51.098;6.414;2023-01-16T16:42:48;7.70;99.90
3053;DHT22;1536;51.098;6.414;2023-01-16T16:45:25;7.70;99.90
3053;DHT22;1536;51.098;6.414;2023-01-16T16:51:19;7.70;99.90
3053;DHT22;1536;51.098;6.414;2023-01-16T16:53:47;7.80;99.90
3053;DHT22;1536;51.098;6.414;2023-01-16T16:56:19;7.80;99.90
3053;DHT22;1536;51.098;6.414;2023-01-16T16:58:48;7.80;99.90
3053;DHT22;1536;51.098;6.414;2023-01-16T17:03:44;7.80;99.90
3053;DHT22;1536;51.098;6.414;2023-01-16T17:06:17;7.80;99.90
3053;DHT22;1536;51.098;6.414;2023-01-16T17:08:44;7.80;99.90
3053;DHT22;1536;51.098;6.414;2023-01-16T17:11:11;7.80;99.90